createdAt,value
2023-07-26T00:03:33.273Z,58.10
2023-07-26T00:08:34.916Z,58.10
2023-07-26T00:13:36.664Z,58.10
2023-07-26T00:18:39.123Z,58.00
2023-07-26T00:23:40.733Z,58.00
2023-07-26T00:28:42.916Z,58.00
2023-07-26T00:33:44.544Z,58.10
2023-07-26T00:38:46.355Z,58.10
2023-07-26T00:43:48.124Z,58.00
2023-07-26T00:48:49.912Z,58.00
2023-07-26T00:53:51.543Z,58.00
2023-07-26T00:58:53.218Z,58.00
2023-07-26T01:03:54.890Z,57.90
2023-07-26T01:08:56.538Z,57.90
2023-07-26T01:14:18.771Z,57.90
2023-07-26T01:19:20.472Z,57.90
2023-07-26T01:24:22.225Z,57.90
2023-07-26T01:29:24.384Z,57.80
2023-07-26T01:34:28.071Z,57.90
2023-07-26T01:39:30.175Z,57.80
2023-07-26T01:44:38.125Z,57.80
2023-07-26T01:49:39.945Z,57.80
2023-07-26T01:54:41.670Z,57.90
2023-07-26T01:59:43.574Z,57.80
2023-07-26T02:04:45.690Z,57.90
2023-07-26T02:09:47.566Z,57.80
2023-07-26T02:14:49.414Z,57.80
2023-07-26T02:19:51.359Z,57.60
2023-07-26T02:24:53.161Z,57.70
2023-07-26T02:29:54.988Z,57.60
2023-07-26T02:34:56.905Z,57.60
2023-07-26T02:39:58.527Z,57.70
2023-07-26T02:45:00.276Z,57.70
2023-07-26T02:50:05.112Z,57.60
2023-07-26T02:55:07.080Z,57.60
2023-07-26T03:00:09.221Z,57.60
2023-07-26T03:05:10.880Z,57.60
2023-07-26T03:10:12.567Z,57.60
2023-07-26T03:15:14.420Z,57.60
2023-07-26T03:20:16.021Z,57.60
2023-07-26T03:25:17.897Z,57.50
2023-07-26T03:30:19.785Z,57.50
2023-07-26T03:35:21.628Z,57.50
2023-07-26T03:40:23.432Z,57.40
2023-07-26T03:45:28.079Z,57.40
2023-07-26T03:50:30.363Z,57.40
2023-07-26T03:55:32.034Z,57.40
2023-07-26T04:00:33.815Z,57.30
2023-07-26T04:05:35.567Z,57.30
2023-07-26T04:10:37.630Z,57.30
2023-07-26T04:15:40.529Z,57.20
2023-07-26T04:20:42.463Z,57.20
2023-07-26T04:25:48.829Z,57.20
2023-07-26T04:30:52.058Z,57.20
2023-07-26T04:35:55.616Z,57.20
2023-07-26T04:40:57.228Z,57.20
2023-07-26T04:51:32.803Z,57.20
2023-07-26T04:56:34.791Z,57.20
2023-07-26T05:01:36.785Z,57.20
2023-07-26T05:06:38.519Z,57.20
2023-07-26T05:11:40.249Z,57.20
2023-07-26T05:16:41.902Z,57.20
2023-07-26T05:21:44.494Z,57.30
2023-07-26T05:26:46.168Z,57.30
2023-07-26T05:31:47.870Z,57.40
2023-07-26T05:36:49.752Z,57.50
2023-07-26T05:41:51.360Z,57.50
2023-07-26T05:46:53.147Z,57.50
2023-07-26T05:51:55.421Z,57.50
2023-07-26T05:56:57.186Z,57.60
2023-07-26T06:02:04.822Z,57.70
2023-07-26T06:07:06.770Z,57.70
2023-07-26T06:12:08.594Z,57.80
2023-07-26T06:17:12.662Z,58.30
2023-07-26T06:22:14.712Z,60.60
2023-07-26T06:27:21.357Z,60.60
2023-07-26T06:32:23.285Z,60.50
2023-07-26T06:37:24.973Z,59.90
2023-07-26T06:42:26.695Z,60.40
2023-07-26T06:47:28.395Z,60.30
2023-07-26T06:52:31.630Z,60.10
2023-07-26T06:57:33.250Z,60.20
2023-07-26T07:02:34.928Z,60.20
2023-07-26T07:07:36.688Z,60.10
2023-07-26T07:12:38.285Z,60.20
2023-07-26T07:17:40.148Z,60.00
2023-07-26T07:22:42.152Z,59.90
2023-07-26T07:27:43.931Z,59.90
2023-07-26T07:32:45.733Z,59.70
2023-07-26T07:37:47.511Z,59.50
2023-07-26T07:42:49.516Z,59.40
2023-07-26T07:47:51.272Z,59.20
2023-07-26T07:52:53.259Z,59.70
2023-07-26T07:57:55.135Z,60.50
2023-07-26T08:02:57.036Z,61.40
2023-07-26T08:07:58.958Z,61.20
2023-07-26T08:13:00.674Z,61.20
2023-07-26T08:18:02.473Z,60.80
2023-07-26T08:23:04.859Z,60.80
2023-07-26T08:28:07.259Z,60.60
2023-07-26T08:33:09.240Z,60.80
2023-07-26T08:38:11.702Z,60.30
2023-07-26T08:43:14.725Z,60.10
2023-07-26T08:48:18.178Z,60.00
2023-07-26T08:53:19.929Z,59.80
2023-07-26T08:58:21.627Z,59.60
2023-07-26T09:03:23.419Z,59.60
2023-07-26T09:08:25.584Z,59.60
2023-07-26T09:13:27.314Z,59.60
2023-07-26T09:18:29.638Z,59.40
2023-07-26T09:23:31.563Z,59.50
2023-07-26T09:28:33.614Z,59.40
2023-07-26T09:33:36.310Z,59.50
2023-07-26T09:38:38.056Z,59.40
2023-07-26T09:43:41.658Z,59.40
2023-07-26T09:48:59.754Z,59.40
2023-07-26T09:54:03.302Z,59.50
2023-07-26T09:59:08.425Z,59.40
2023-07-26T10:04:12.232Z,59.30
2023-07-26T10:09:16.897Z,59.20
2023-07-26T10:14:20.726Z,59.10
2023-07-26T10:19:23.121Z,59.00
2023-07-26T10:24:25.658Z,58.80
2023-07-26T10:29:27.419Z,58.60
2023-07-26T10:34:29.195Z,58.50
2023-07-26T10:39:36.808Z,58.30
2023-07-26T10:44:40.366Z,58.20
2023-07-26T10:49:45.890Z,58.20
2023-07-26T10:54:47.571Z,58.20
2023-07-26T10:59:57.452Z,58.10
2023-07-26T11:04:59.334Z,58.20
2023-07-26T11:10:16.839Z,58.20
2023-07-26T11:16:12.988Z,58.10
2023-07-26T11:20:51.860Z,59.00
2023-07-26T11:25:54.650Z,58.10
2023-07-26T11:30:57.407Z,58.20
2023-07-26T11:36:00.360Z,58.10
2023-07-26T11:41:02.921Z,58.10
2023-07-26T11:46:04.785Z,58.10
2023-07-26T11:51:07.320Z,58.20
2023-07-26T11:56:09.829Z,58.00
2023-07-26T12:01:11.580Z,58.20
2023-07-26T12:06:13.322Z,58.10
2023-07-26T12:11:18.214Z,58.10
2023-07-26T12:16:26.869Z,58.10
2023-07-26T12:21:30.124Z,58.10
2023-07-26T12:26:34.520Z,58.10
2023-07-26T12:31:38.452Z,58.10
2023-07-26T12:36:45.036Z,58.10
2023-07-26T12:41:47.103Z,58.10
2023-07-26T12:51:53.603Z,58.10
2023-07-26T12:56:55.887Z,58.10
2023-07-26T13:01:57.646Z,58.10
2023-07-26T13:06:59.395Z,58.10
2023-07-26T13:12:01.165Z,58.10
2023-07-26T13:17:02.930Z,58.00
2023-07-26T13:22:04.774Z,57.90
2023-07-26T13:27:06.640Z,57.90
2023-07-26T13:32:08.573Z,57.90
2023-07-26T13:37:10.402Z,57.90
2023-07-26T13:42:12.163Z,57.60
2023-07-26T13:47:14.065Z,57.60
2023-07-26T13:52:16.693Z,57.60
2023-07-26T13:57:18.699Z,57.70
2023-07-26T14:02:20.635Z,57.70
2023-07-26T14:07:22.366Z,57.60
2023-07-26T14:12:24.134Z,57.70
2023-07-26T14:17:26.222Z,57.70
2023-07-26T14:22:28.109Z,57.70
2023-07-26T14:27:30.038Z,57.80
2023-07-26T14:32:32.007Z,57.80
2023-07-26T14:37:33.914Z,57.70
2023-07-26T14:42:35.810Z,57.80
2023-07-26T14:47:37.611Z,57.80
2023-07-26T14:52:39.654Z,57.80
2023-07-26T14:57:41.542Z,57.80
2023-07-26T15:02:43.581Z,57.80
2023-07-26T15:07:45.236Z,57.80
2023-07-26T15:12:46.917Z,57.80
2023-07-26T15:17:48.763Z,57.70
2023-07-26T15:22:53.463Z,57.80
2023-07-26T15:27:55.305Z,57.80
2023-07-26T15:32:57.106Z,57.80
2023-07-26T15:37:58.952Z,57.80
2023-07-26T15:43:01.046Z,57.60
2023-07-26T15:48:02.775Z,57.40
2023-07-26T15:53:05.504Z,57.50
2023-07-26T15:58:07.165Z,57.40
2023-07-26T16:03:09.947Z,57.50
2023-07-26T16:08:12.465Z,57.50
2023-07-26T16:13:14.458Z,57.40
2023-07-26T16:18:16.680Z,57.30
2023-07-26T16:23:18.513Z,57.40
2023-07-26T16:28:20.263Z,57.20
2023-07-26T16:33:22.005Z,57.20
2023-07-26T16:38:23.928Z,57.20
2023-07-26T16:43:25.791Z,57.20
2023-07-26T16:48:27.394Z,57.00
2023-07-26T16:53:29.117Z,57.10
2023-07-26T16:58:30.876Z,57.00
2023-07-26T17:03:32.753Z,57.00
2023-07-26T17:08:34.436Z,57.00
2023-07-26T17:13:36.157Z,57.00
2023-07-26T17:18:39.556Z,57.00
2023-07-26T17:23:42.870Z,56.90
2023-07-26T17:28:44.763Z,57.80
2023-07-26T17:33:46.374Z,56.70
2023-07-26T17:38:48.105Z,56.50
2023-07-26T17:43:49.768Z,56.60
2023-07-26T17:48:51.488Z,56.40
2023-07-26T17:53:53.244Z,56.40
2023-07-26T17:58:55.078Z,56.40
2023-07-26T18:03:56.804Z,56.50
2023-07-26T18:08:58.583Z,56.50
2023-07-26T18:14:00.683Z,56.50
2023-07-26T18:19:03.325Z,56.30
2023-07-26T18:24:06.458Z,56.20
2023-07-26T18:29:08.292Z,56.20
2023-07-26T18:34:10.085Z,56.00
2023-07-26T18:39:13.534Z,56.00
2023-07-26T18:44:16.448Z,56.10
2023-07-26T18:49:18.358Z,56.00
2023-07-26T18:54:20.094Z,56.20
2023-07-26T18:59:21.879Z,56.30
2023-07-26T19:04:23.730Z,56.20
2023-07-26T19:09:25.507Z,56.30
2023-07-26T19:14:27.362Z,56.40
2023-07-26T19:19:29.152Z,56.30
2023-07-26T19:24:30.931Z,56.40
2023-07-26T19:29:32.712Z,56.50
2023-07-26T19:34:34.528Z,56.60
2023-07-26T19:39:36.454Z,56.50
2023-07-26T19:44:38.147Z,56.60
2023-07-26T19:49:39.924Z,56.60
2023-07-26T19:54:41.887Z,56.60
2023-07-26T19:59:43.650Z,56.70
2023-07-26T20:04:45.378Z,56.70
2023-07-26T20:09:47.274Z,56.70
2023-07-26T20:14:49.032Z,56.60
2023-07-26T20:19:52.006Z,56.70
2023-07-26T20:24:53.901Z,56.60
2023-07-26T20:29:55.743Z,56.60
2023-07-26T20:34:57.628Z,56.50
2023-07-26T20:39:59.259Z,56.50
2023-07-26T20:45:01.024Z,56.40
2023-07-26T20:50:02.910Z,56.40
2023-07-26T20:55:04.783Z,56.30
2023-07-26T21:00:06.730Z,56.20
2023-07-26T21:05:09.004Z,56.10
2023-07-26T21:10:10.657Z,56.00
2023-07-26T21:15:12.481Z,56.00
2023-07-26T21:20:14.169Z,55.90
2023-07-26T21:25:15.897Z,55.90
2023-07-26T21:30:17.740Z,55.90
2023-07-26T21:35:19.463Z,55.80
2023-07-26T21:40:21.186Z,55.70
2023-07-26T21:45:23.033Z,55.80
2023-07-26T21:50:24.833Z,55.70
2023-07-26T21:55:26.612Z,55.70
2023-07-26T22:00:28.492Z,55.70
2023-07-26T22:05:30.139Z,55.60
2023-07-26T22:10:31.936Z,55.60
2023-07-26T22:15:33.773Z,55.60
2023-07-26T22:20:35.405Z,55.60
2023-07-26T22:25:37.177Z,55.60
2023-07-26T22:30:38.937Z,55.50
2023-07-26T22:35:40.729Z,55.50
2023-07-26T22:40:42.510Z,55.50
2023-07-26T22:45:44.732Z,55.40
2023-07-26T22:50:46.516Z,55.40
2023-07-26T22:55:48.482Z,55.30
2023-07-26T23:00:50.217Z,55.30
2023-07-26T23:05:55.774Z,55.40
2023-07-26T23:10:58.739Z,55.40
2023-07-26T23:16:02.145Z,55.40
2023-07-26T23:21:03.892Z,55.40
2023-07-26T23:26:05.483Z,55.30
2023-07-26T23:31:08.254Z,55.20
2023-07-26T23:36:10.157Z,55.30
2023-07-26T23:41:11.851Z,55.30
2023-07-26T23:46:13.613Z,55.30
2023-07-26T23:51:15.374Z,55.40
2023-07-26T23:56:17.041Z,55.40
